Time;durP1;ratioP1;P1;durP2;ratioP2;P2;SDS_P1;SDS_P2;PMS_P1;PMS_P2;Temp;Humidity;BMP_temperature;BMP_pressure;BME280_temperature;BME280_humidity;BME280_pressure;Samples;Min_cycle;Max_cycle;Signal;HPM_P1;HPM_P2
2023/04/07 00:00:39;;;;;;;17.55;7.47;;;;;;;1.26;46.88;93624.09;5062268;28;20308;-69
2023/04/07 00:03:06;;;;;;;14.88;6.50;;;;;;;1.17;47.22;93617.78;5061067;28;20215;-70
2023/04/07 00:05:32;;;;;;;13.90;5.70;;;;;;;1.14;47.23;93623.53;5062231;28;20032;-70
2023/04/07 00:07:57;;;;;;;13.05;6.93;;;;;;;1.19;46.86;93620.94;5062424;28;20303;-69
2023/04/07 00:10:24;;;;;;;14.40;6.70;;;;;;;1.14;47.28;93624.34;5065765;28;20119;-69
2023/04/07 00:12:49;;;;;;;12.70;6.80;;;;;;;1.20;47.38;93617.25;5065044;28;20021;-69
2023/04/07 00:15:15;;;;;;;11.98;6.18;;;;;;;1.16;46.71;93621.44;5065756;28;20036;-69
2023/04/07 00:17:40;;;;;;;15.73;6.70;;;;;;;1.22;46.60;93620.41;5065602;28;20039;-69
2023/04/07 00:20:06;;;;;;;11.48;6.30;;;;;;;1.27;46.91;93627.53;5066006;28;20130;-69
2023/04/07 00:22:32;;;;;;;10.98;6.07;;;;;;;1.13;47.71;93616.72;5065591;28;20025;-69
2023/04/07 00:24:57;;;;;;;13.48;7.13;;;;;;;1.17;47.03;93623.03;5065579;28;20020;-68
2023/04/07 00:27:23;;;;;;;9.80;6.18;;;;;;;1.23;47.46;93623.84;5064515;28;20312;-69
2023/04/07 00:29:48;;;;;;;15.70;6.18;;;;;;;1.21;47.35;93618.84;5065484;28;20021;-69
2023/04/07 00:32:13;;;;;;;12.63;6.25;;;;;;;1.20;46.01;93625.13;5065300;28;20036;-69
2023/04/07 00:34:39;;;;;;;11.23;6.18;;;;;;;1.18;46.27;93614.09;5065425;28;20056;-71
2023/04/07 00:37:05;;;;;;;9.88;6.03;;;;;;;1.21;45.93;93608.34;5065589;28;20070;-71
2023/04/07 00:39:31;;;;;;;13.90;6.38;;;;;;;1.15;46.32;93612.00;5065420;28;20124;-69
2023/04/07 00:41:57;;;;;;;11.10;5.75;;;;;;;1.13;46.55;93617.50;5065198;28;20351;-68
2023/04/07 00:44:22;;;;;;;10.70;6.25;;;;;;;1.22;46.17;93611.75;5065194;28;20021;-68
2023/04/07 00:46:48;;;;;;;8.65;5.07;;;;;;;1.20;46.00;93615.44;5065157;28;20291;-69
2023/04/07 00:49:16;;;;;;;10.73;6.50;;;;;;;1.17;46.33;93612.53;5065185;28;20051;-69
2023/04/07 00:51:42;;;;;;;14.85;7.50;;;;;;;1.24;46.35;93615.69;5065122;28;20315;-68
2023/04/07 00:54:09;;;;;;;10.18;5.68;;;;;;;1.18;46.90;93609.66;5064044;28;20082;-69
2023/04/07 00:56:34;;;;;;;9.45;5.32;;;;;;;1.23;46.96;93619.38;5064737;28;20052;-69
2023/04/07 00:59:00;;;;;;;11.18;5.90;;;;;;;1.23;46.69;93622.00;5064482;28;20311;-69
2023/04/07 01:01:32;;;;;;;13.77;6.65;;;;;;;1.25;45.98;93613.88;5064487;28;20036;-70
2023/04/07 01:04:03;;;;;;;8.88;5.25;;;;;;;1.19;46.36;93610.44;5064435;28;20020;-69
2023/04/07 01:06:34;;;;;;;14.65;5.88;;;;;;;1.26;46.41;93610.19;5064350;28;20234;-70
2023/04/07 01:09:21;;;;;;;9.38;5.25;;;;;;;1.21;46.73;93603.09;5064473;28;20024;-69
2023/04/07 01:12:07;;;;;;;11.68;5.88;;;;;;;1.19;46.67;93613.06;5064757;28;20027;-69
2023/04/07 01:14:39;;;;;;;11.80;5.40;;;;;;;1.16;46.62;93600.44;5064915;28;20024;-69
2023/04/07 01:17:06;;;;;;;16.20;5.30;;;;;;;1.24;46.49;93599.16;5064697;28;20025;-69
2023/04/07 01:19:43;;;;;;;10.73;5.72;;;;;;;1.25;46.74;93598.91;5064421;28;20028;-69
2023/04/07 01:22:16;;;;;;;11.20;6.22;;;;;;;1.22;46.56;93603.88;5064692;28;20067;-69
2023/04/07 01:24:59;;;;;;;14.93;5.60;;;;;;;1.25;47.01;93593.66;5064532;28;20021;-69
2023/04/07 01:27:53;;;;;;;11.00;6.20;;;;;;;1.19;47.06;93598.09;5064380;28;20381;-69
2023/04/07 01:30:21;;;;;;;11.57;5.30;;;;;;;1.20;47.47;93593.63;5064349;28;20216;-69
2023/04/07 01:32:50;;;;;;;10.43;5.80;;;;;;;1.23;46.98;93593.13;5064182;28;20033;-69
2023/04/07 01:35:17;;;;;;;12.18;5.80;;;;;;;1.19;47.21;93595.47;5064414;28;20037;-69
2023/04/07 01:37:47;;;;;;;11.93;5.97;;;;;;;1.23;47.16;93582.63;5064228;28;20032;-69
2023/04/07 01:40:14;;;;;;;9.68;5.70;;;;;;;1.30;47.17;93596.25;5064086;28;20025;-69
2023/04/07 01:42:41;;;;;;;10.52;5.88;;;;;;;1.29;46.98;93584.19;5064144;28;20032;-68
2023/04/07 01:45:08;;;;;;;10.65;5.22;;;;;;;1.34;46.50;93586.84;5064190;28;20315;-71
2023/04/07 01:47:36;;;;;;;17.85;5.75;;;;;;;1.42;46.37;93595.22;5064246;28;20040;-69
2023/04/07 01:50:04;;;;;;;10.18;5.65;;;;;;;1.35;45.73;93577.91;5064118;28;20043;-69
2023/04/07 01:52:31;;;;;;;10.70;5.05;;;;;;;1.38;46.15;93592.34;5063770;28;20040;-69
2023/04/07 01:54:56;;;;;;;11.32;5.30;;;;;;;1.37;45.94;93585.53;5063977;28;20219;-69
2023/04/07 01:57:22;;;;;;;11.88;5.93;;;;;;;1.37;46.14;93591.56;5063705;28;20041;-69
2023/04/07 01:59:47;;;;;;;8.82;5.47;;;;;;;1.47;45.47;93576.88;5063685;28;20016;-69
2023/04/07 02:02:13;;;;;;;6.88;4.40;;;;;;;1.41;45.42;93583.94;5063674;28;20029;-70
2023/04/07 02:04:54;;;;;;;11.35;5.47;;;;;;;1.43;45.29;93586.31;5063812;28;20029;-70
2023/04/07 02:07:43;;;;;;;10.70;4.70;;;;;;;1.40;45.20;93562.16;5063693;28;20040;-70
2023/04/07 02:10:12;;;;;;;12.15;5.43;;;;;;;1.50;45.20;93578.94;5056294;28;20028;-69
2023/04/07 02:12:40;;;;;;;12.52;5.72;;;;;;;1.53;44.95;93563.47;5063729;28;20020;-69
2023/04/07 02:15:08;;;;;;;11.52;5.40;;;;;;;1.55;44.85;93577.13;5063520;28;20024;-69
2023/04/07 02:17:36;;;;;;;10.35;5.35;;;;;;;1.58;45.19;93576.56;5063677;28;20102;-69
2023/04/07 02:20:03;;;;;;;8.75;5.28;;;;;;;1.48;44.83;93576.59;5062202;28;20029;-70
2023/04/07 02:22:29;;;;;;;9.95;5.53;;;;;;;1.55;44.92;93576.34;5063275;28;20082;-69
2023/04/07 02:24:55;;;;;;;8.77;5.07;;;;;;;1.47;44.76;93569.00;5063549;28;20088;-69
2023/04/07 02:27:20;;;;;;;9.18;4.97;;;;;;;1.50;45.12;93577.09;5063291;28;20213;-69
2023/04/07 02:29:45;;;;;;;12.93;5.20;;;;;;;1.54;45.41;93574.75;5063244;28;20029;-70
2023/04/07 02:32:11;;;;;;;10.27;4.90;;;;;;;1.51;45.32;93570.03;5062661;28;20037;-69
2023/04/07 02:34:36;;;;;;;13.30;6.30;;;;;;;1.56;45.48;93573.44;5063218;28;20024;-70
2023/04/07 02:37:02;;;;;;;10.18;5.55;;;;;;;1.57;44.90;93574.25;5063206;28;20036;-69
2023/04/07 02:39:27;;;;;;;10.13;4.88;;;;;;;1.59;45.44;93577.38;5063201;28;20036;-69
2023/04/07 02:41:53;;;;;;;6.53;4.53;;;;;;;1.57;45.26;93574.25;5063056;28;20083;-70
2023/04/07 02:44:18;;;;;;;17.30;5.20;;;;;;;1.60;45.54;93581.56;5062877;28;20035;-70
2023/04/07 02:46:43;;;;;;;7.45;4.57;;;;;;;1.65;45.46;93576.34;5063055;28;20092;-70
2023/04/07 02:49:09;;;;;;;8.93;4.53;;;;;;;1.52;45.62;93580.25;5062946;28;20354;-70
2023/04/07 02:51:34;;;;;;;13.70;5.55;;;;;;;1.48;46.05;93581.84;5062939;28;20021;-70
2023/04/07 02:54:00;;;;;;;9.50;5.63;;;;;;;1.65;45.54;93586.84;5062955;28;20303;-70
2023/04/07 02:56:25;;;;;;;8.70;5.25;;;;;;;1.62;46.16;93584.72;5061644;28;20056;-70
2023/04/07 02:58:51;;;;;;;16.50;5.72;;;;;;;1.64;45.92;93585.25;5062814;28;20074;-70
2023/04/07 03:01:16;;;;;;;9.10;5.10;;;;;;;1.70;46.31;93586.81;5062688;28;20033;-70
2023/04/07 03:03:43;;;;;;;9.52;5.38;;;;;;;1.68;45.75;93586.31;5062817;28;20352;-70
2023/04/07 03:06:09;;;;;;;8.27;5.07;;;;;;;1.75;45.64;93584.22;5062637;28;20035;-70
2023/04/07 03:08:34;;;;;;;12.57;5.72;;;;;;;1.74;45.02;93593.13;5062877;28;20219;-69
2023/04/07 03:11:00;;;;;;;17.23;6.18;;;;;;;1.69;45.15;93601.03;5062765;28;20067;-69
2023/04/07 03:13:26;;;;;;;14.77;5.18;;;;;;;1.71;45.35;93593.66;5062550;28;20059;-69
2023/04/07 03:15:52;;;;;;;7.80;4.60;;;;;;;1.76;46.04;93593.66;5062685;28;20104;-69
2023/04/07 03:18:17;;;;;;;8.93;4.95;;;;;;;1.69;45.64;93587.88;5062663;28;20109;-69
2023/04/07 03:20:43;;;;;;;8.88;5.15;;;;;;;1.74;45.29;93587.88;5062624;28;20056;-69
2023/04/07 03:23:08;;;;;;;10.27;5.35;;;;;;;1.74;45.71;93594.97;5062572;28;20029;-69
2023/04/07 03:25:34;;;;;;;10.15;5.20;;;;;;;1.79;45.84;93598.38;5062757;28;20021;-69
2023/04/07 03:28:00;;;;;;;9.30;5.10;;;;;;;1.74;45.49;93600.22;5062481;28;20091;-69
2023/04/07 03:30:26;;;;;;;10.30;5.03;;;;;;;1.69;45.51;93592.34;5062492;28;20021;-69
2023/04/07 03:32:51;;;;;;;7.60;5.00;;;;;;;1.69;45.38;93582.63;5062509;28;20029;-69
2023/04/07 03:35:17;;;;;;;9.60;4.82;;;;;;;1.72;45.78;93584.72;5062550;28;20020;-69
2023/04/07 03:37:42;;;;;;;10.55;4.90;;;;;;;1.70;45.93;93588.66;5062221;28;20052;-69
2023/04/07 03:40:08;;;;;;;11.60;5.22;;;;;;;1.71;46.07;93582.34;5062603;28;20067;-70
2023/04/07 03:42:33;;;;;;;10.90;5.00;;;;;;;1.67;45.78;93584.75;5063846;28;20032;-70
2023/04/07 03:44:59;;;;;;;18.23;5.60;;;;;;;1.71;46.35;93579.72;5066242;28;20329;-70
2023/04/07 03:47:25;;;;;;;9.48;5.03;;;;;;;1.61;46.41;93575.28;5066464;28;20021;-70
2023/04/07 03:49:50;;;;;;;9.73;5.40;;;;;;;1.53;46.58;93576.59;5066306;28;20455;-70
2023/04/07 03:52:16;;;;;;;8.52;4.88;;;;;;;1.60;46.45;93577.09;5066095;28;20020;-70
2023/04/07 03:54:42;;;;;;;10.27;4.95;;;;;;;1.69;46.36;93573.94;5066318;28;20025;-70
2023/04/07 03:57:07;;;;;;;8.13;4.68;;;;;;;1.62;46.62;93574.22;5066221;28;20217;-70
2023/04/07 03:59:33;;;;;;;12.48;5.40;;;;;;;1.65;46.61;93589.47;5066172;28;20021;-70
2023/04/07 04:01:58;;;;;;;8.20;4.70;;;;;;;1.53;47.24;93581.84;5066095;28;20039;-70
2023/04/07 04:04:24;;;;;;;9.70;5.43;;;;;;;1.40;47.36;93580.53;5065986;28;20028;-70
2023/04/07 04:06:50;;;;;;;8.95;4.38;;;;;;;1.36;47.33;93579.50;5065913;28;20041;-70
2023/04/07 04:09:15;;;;;;;14.68;4.68;;;;;;;1.34;47.45;93592.09;5066006;28;20201;-70
2023/04/07 04:11:41;;;;;;;11.93;5.28;;;;;;;1.33;47.34;93580.00;5065927;28;20219;-70
2023/04/07 04:14:06;;;;;;;9.95;5.10;;;;;;;1.38;47.35;93582.66;5066000;28;20044;-70
2023/04/07 04:16:34;;;;;;;13.27;5.47;;;;;;;1.45;47.34;93573.72;5066171;28;20025;-70
2023/04/07 04:18:59;;;;;;;13.93;4.50;;;;;;;1.44;47.47;93593.13;5065902;28;20025;-70
2023/04/07 04:21:26;;;;;;;7.90;4.90;;;;;;;1.45;46.94;93597.34;5065622;28;20062;-70
2023/04/07 04:23:51;;;;;;;10.77;5.85;;;;;;;1.41;46.96;93591.81;5065542;28;20040;-70
2023/04/07 04:26:17;;;;;;;12.38;5.05;;;;;;;1.40;47.11;93591.06;5065728;28;20100;-70
2023/04/07 04:28:42;;;;;;;9.13;4.45;;;;;;;1.43;47.23;93599.44;5065561;28;20197;-69
2023/04/07 04:31:08;;;;;;;13.60;5.20;;;;;;;1.40;47.00;93612.06;5065809;28;20238;-69
2023/04/07 04:33:33;;;;;;;9.40;4.75;;;;;;;1.46;46.93;93599.69;5065809;28;20212;-69
2023/04/07 04:35:59;;;;;;;13.43;5.45;;;;;;;1.55;47.47;93597.34;5065422;28;20092;-70
2023/04/07 04:38:24;;;;;;;8.48;4.40;;;;;;;1.62;47.37;93608.38;5065349;28;20024;-69
2023/04/07 04:40:50;;;;;;;8.75;4.90;;;;;;;1.66;46.75;93601.53;5065450;28;20365;-69
2023/04/07 04:43:15;;;;;;;9.65;4.40;;;;;;;1.70;46.79;93613.09;5065180;28;20251;-69
2023/04/07 04:45:41;;;;;;;11.48;5.20;;;;;;;1.78;46.18;93615.19;5065413;28;20017;-69
2023/04/07 04:48:06;;;;;;;10.95;4.57;;;;;;;1.68;46.25;93617.81;5065400;28;20215;-70
2023/04/07 04:50:31;;;;;;;10.85;5.72;;;;;;;1.85;46.00;93622.03;5065211;28;20020;-70
2023/04/07 04:52:57;;;;;;;9.40;4.72;;;;;;;1.76;46.45;93609.41;5065211;28;20017;-70
2023/04/07 04:55:22;;;;;;;11.63;5.07;;;;;;;1.87;46.00;93618.06;5064492;28;20322;-70
2023/04/07 04:57:48;;;;;;;14.05;5.22;;;;;;;1.98;45.28;93613.63;5064856;28;20339;-70
2023/04/07 05:00:13;;;;;;;7.93;4.13;;;;;;;2.10;44.72;93614.13;5065318;28;20059;-69
2023/04/07 05:02:39;;;;;;;7.70;4.05;;;;;;;2.19;44.45;93638.81;5065056;28;20323;-69
2023/04/07 05:05:05;;;;;;;8.15;4.60;;;;;;;2.20;44.57;93624.63;5065152;28;20024;-68
2023/04/07 05:07:30;;;;;;;12.80;4.53;;;;;;;2.33;44.63;93625.13;5064724;28;20025;-69
2023/04/07 05:09:56;;;;;;;9.43;4.50;;;;;;;2.38;43.95;93625.09;5064880;28;20041;-68
2023/04/07 05:12:21;;;;;;;14.95;5.35;;;;;;;2.49;43.87;93625.88;5064489;28;20021;-68
2023/04/07 05:14:47;;;;;;;10.15;4.20;;;;;;;2.64;44.43;93625.81;5064501;28;20021;-68
2023/04/07 05:17:12;;;;;;;8.27;3.88;;;;;;;2.70;43.68;93637.88;5064433;28;20025;-68
2023/04/07 05:19:37;;;;;;;9.52;4.60;;;;;;;2.96;43.13;93648.31;5064744;28;20025;-68
2023/04/07 05:22:03;;;;;;;8.27;4.53;;;;;;;3.01;42.73;93635.13;5064466;28;20031;-68
2023/04/07 05:24:28;;;;;;;9.02;4.75;;;;;;;3.10;42.77;93638.78;5064511;28;20032;-68
2023/04/07 05:26:55;;;;;;;10.05;4.65;;;;;;;3.16;43.10;93647.44;5064595;28;20058;-68
2023/04/07 05:29:20;;;;;;;11.18;4.97;;;;;;;3.27;43.22;93641.03;5064321;28;20042;-69
2023/04/07 05:31:46;;;;;;;16.42;8.27;;;;;;;3.42;46.11;93632.28;5064444;28;20024;-69
2023/04/07 05:34:11;;;;;;;19.40;9.75;;;;;;;3.45;46.86;93649.38;5064500;28;20116;-68
2023/04/07 05:36:37;;;;;;;35.95;11.25;;;;;;;3.45;47.78;93642.25;5064471;28;20100;-68
2023/04/07 05:39:02;;;;;;;20.23;10.80;;;;;;;3.64;47.88;93655.56;5064145;28;20042;-68
2023/04/07 05:41:27;;;;;;;25.67;12.02;;;;;;;3.76;48.01;93647.31;5064167;28;20078;-69
2023/04/07 05:43:53;;;;;;;23.27;9.85;;;;;;;3.68;48.18;93648.69;5064063;28;20032;-69
2023/04/07 05:46:19;;;;;;;20.83;10.23;;;;;;;3.85;48.22;93650.16;5064310;28;20028;-69
2023/04/07 05:48:44;;;;;;;26.48;11.30;;;;;;;4.03;47.94;93646.88;5064119;28;20188;-69
2023/04/07 05:51:10;;;;;;;21.30;10.30;;;;;;;4.20;47.23;93649.84;5063985;28;20092;-69
2023/04/07 05:53:35;;;;;;;21.17;10.82;;;;;;;4.22;47.08;93649.59;5064301;28;20031;-69
2023/04/07 05:56:01;;;;;;;23.38;12.27;;;;;;;4.37;47.06;93652.06;5063393;28;20020;-70
2023/04/07 05:58:26;;;;;;;20.38;10.23;;;;;;;4.51;46.70;93652.19;5063712;28;20021;-70
2023/04/07 06:00:52;;;;;;;23.88;11.00;;;;;;;4.62;46.14;93651.03;5063982;28;20363;-69
2023/04/07 06:03:17;;;;;;;24.77;10.27;;;;;;;4.66;46.01;93659.19;5063760;28;20259;-70
2023/04/07 06:05:45;;;;;;;17.20;9.30;;;;;;;4.72;46.22;93652.78;5063675;28;20032;-71
2023/04/07 06:08:11;;;;;;;19.85;9.77;;;;;;;4.83;46.13;93648.94;5063599;28;20029;-70
2023/04/07 06:10:36;;;;;;;20.35;10.80;;;;;;;4.92;46.09;93661.53;5063844;28;20029;-70
2023/04/07 06:13:02;;;;;;;24.50;11.60;;;;;;;4.96;45.87;93654.63;5063673;28;20084;-70
2023/04/07 06:15:27;;;;;;;26.33;10.93;;;;;;;5.00;45.92;93648.47;5063658;28;20021;-71
2023/04/07 06:17:53;;;;;;;18.02;9.77;;;;;;;5.01;45.36;93655.34;5063442;28;20024;-70
2023/04/07 06:20:20;;;;;;;19.05;9.70;;;;;;;5.07;45.44;93652.63;5063586;28;20025;-70
2023/04/07 06:22:46;;;;;;;21.85;10.82;;;;;;;5.16;44.92;93656.22;5063242;28;20257;-70
2023/04/07 06:25:11;;;;;;;21.02;9.75;;;;;;;5.18;44.95;93643.53;5063483;28;20052;-71
2023/04/07 06:27:37;;;;;;;15.45;8.65;;;;;;;5.19;43.55;93643.25;5063651;28;20315;-70
2023/04/07 06:30:04;;;;;;;22.42;8.98;;;;;;;4.97;42.14;93650.94;5063462;28;20032;-70
2023/04/07 06:32:30;;;;;;;15.43;8.65;;;;;;;5.02;43.40;93667.47;5063396;28;20032;-70
2023/04/07 06:34:55;;;;;;;30.00;9.82;;;;;;;5.06;44.55;93651.06;5063339;28;20016;-69
2023/04/07 06:37:23;;;;;;;19.92;10.27;;;;;;;4.94;44.40;93654.13;5063033;28;20041;-71
2023/04/07 06:39:49;;;;;;;12.50;5.25;;;;;;;4.52;40.27;93645.88;5063196;28;20100;-69
2023/04/07 06:42:14;;;;;;;14.77;6.65;;;;;;;4.22;41.61;93655.66;5063128;28;20056;-69
2023/04/07 06:44:40;;;;;;;13.13;6.22;;;;;;;4.28;41.35;93653.75;5063197;28;20052;-69
2023/04/07 06:47:05;;;;;;;12.30;5.38;;;;;;;4.13;41.58;93656.50;5062195;28;20028;-70
2023/04/07 06:49:30;;;;;;;9.43;4.93;;;;;;;4.03;41.32;93649.50;5062990;28;20104;-69
2023/04/07 06:51:56;;;;;;;15.75;6.82;;;;;;;3.87;41.99;93642.75;5062909;28;20017;-69
2023/04/07 06:54:21;;;;;;;8.88;4.25;;;;;;;3.82;42.15;93654.91;5063135;28;20334;-69
2023/04/07 06:56:47;;;;;;;17.25;5.22;;;;;;;3.87;42.02;93653.28;5062857;28;20048;-70
2023/04/07 06:59:12;;;;;;;8.73;4.28;;;;;;;3.85;41.30;93652.78;5062806;28;20223;-70
2023/04/07 07:01:37;;;;;;;10.85;5.43;;;;;;;3.92;41.25;93645.34;5063038;28;20055;-70
2023/04/07 07:04:04;;;;;;;7.75;4.78;;;;;;;3.88;41.65;93645.13;5062810;28;20020;-70
2023/04/07 07:06:30;;;;;;;9.50;4.63;;;;;;;3.87;41.91;93666.47;5062466;28;20274;-70
2023/04/07 07:08:56;;;;;;;42.15;11.23;;;;;;;3.90;41.79;93663.31;5062767;28;20119;-70
2023/04/07 07:11:21;;;;;;;10.43;5.15;;;;;;;3.91;41.24;93660.41;5062557;28;20044;-70
2023/04/07 07:13:47;;;;;;;16.90;6.93;;;;;;;4.12;41.56;93655.72;5062710;28;20013;-68
2023/04/07 07:16:12;;;;;;;9.57;5.03;;;;;;;4.20;40.51;93657.78;5062528;28;20219;-68
2023/04/07 07:18:38;;;;;;;10.68;4.95;;;;;;;4.29;42.97;93660.59;5062323;28;20021;-67
2023/04/07 07:21:03;;;;;;;11.43;5.35;;;;;;;4.50;41.60;93670.94;5062160;28;20025;-65
2023/04/07 07:23:29;;;;;;;12.10;5.65;;;;;;;4.47;40.00;93661.75;5062173;28;20104;-73
2023/04/07 07:25:55;;;;;;;12.77;5.38;;;;;;;4.48;40.81;93665.97;5061352;28;20032;-71
2023/04/07 07:28:20;;;;;;;8.15;4.55;;;;;;;4.58;41.42;93680.91;5062574;28;20021;-71
2023/04/07 07:30:46;;;;;;;8.80;4.65;;;;;;;4.59;40.71;93674.56;5062424;28;20231;-71
2023/04/07 07:33:12;;;;;;;26.77;9.02;;;;;;;4.68;40.51;93682.66;5061317;28;20016;-71
2023/04/07 07:35:39;;;;;;;12.60;6.22;;;;;;;4.93;39.97;93692.94;5062506;28;20143;-71
2023/04/07 07:38:05;;;;;;;10.73;4.97;;;;;;;4.90;39.07;93682.94;5062614;28;20044;-71
2023/04/07 07:40:31;;;;;;;9.02;4.63;;;;;;;5.02;40.04;93693.88;5062315;28;20021;-71
2023/04/07 07:42:56;;;;;;;10.27;3.92;;;;;;;4.77;38.95;93687.03;5062066;28;20021;-71
2023/04/07 07:45:21;;;;;;;9.07;5.00;;;;;;;4.73;39.17;93688.66;5062459;28;20021;-70
2023/04/07 07:47:47;;;;;;;13.55;5.63;;;;;;;4.85;39.51;93703.34;5062524;28;20219;-70
2023/04/07 07:50:12;;;;;;;7.95;4.32;;;;;;;4.91;39.75;93692.44;5062077;28;20337;-70
2023/04/07 07:52:38;;;;;;;9.35;4.13;;;;;;;4.92;38.82;93699.28;5062411;28;20088;-71
2023/04/07 07:55:04;;;;;;;9.73;4.70;;;;;;;4.82;39.18;93699.41;5062446;28;20036;-70
2023/04/07 07:57:32;;;;;;;19.88;5.80;;;;;;;4.95;38.67;93687.41;5062278;28;20282;-70
2023/04/07 07:59:58;;;;;;;7.22;3.97;;;;;;;4.86;38.49;93704.91;5062116;28;20032;-71
2023/04/07 08:02:29;;;;;;;9.55;4.63;;;;;;;4.76;39.40;93700.53;5062117;28;20265;-72
2023/04/07 08:04:55;;;;;;;8.90;4.50;;;;;;;5.04;38.80;93696.25;5061928;28;20025;-70
2023/04/07 08:07:20;;;;;;;7.10;4.35;;;;;;;5.16;39.18;93690.56;5062047;28;20590;-71
2023/04/07 08:09:46;;;;;;;12.15;4.57;;;;;;;5.45;38.83;93684.41;5062321;28;20021;-70
2023/04/07 08:12:11;;;;;;;7.72;4.70;;;;;;;5.60;38.20;93689.50;5062165;28;20304;-70
2023/04/07 08:14:36;;;;;;;9.05;4.60;;;;;;;5.50;37.90;93692.28;5061185;28;20096;-71
2023/04/07 08:17:02;;;;;;;6.95;4.50;;;;;;;5.34;38.00;93702.25;5062212;28;20043;-71
2023/04/07 08:19:27;;;;;;;8.02;4.88;;;;;;;5.41;37.62;93705.31;5061754;28;20020;-71
2023/04/07 08:21:53;;;;;;;9.55;4.53;;;;;;;5.43;37.98;93693.41;5062120;28;20056;-71
2023/04/07 08:24:18;;;;;;;8.77;3.95;;;;;;;5.60;37.95;93692.13;5061975;28;20021;-72
2023/04/07 08:26:44;;;;;;;8.50;3.97;;;;;;;5.87;38.92;93704.72;5062156;28;20025;-71
2023/04/07 08:29:10;;;;;;;7.88;4.80;;;;;;;5.92;37.04;93698.56;5062527;28;20028;-70
2023/04/07 08:31:35;;;;;;;18.60;4.53;;;;;;;5.72;37.06;93699.63;5065592;28;20078;-71
2023/04/07 08:34:00;;;;;;;10.77;4.80;;;;;;;5.65;37.90;93710.56;5065467;28;20214;-71
2023/04/07 08:36:27;;;;;;;7.32;4.25;;;;;;;5.61;38.28;93693.69;5065645;28;20025;-70
2023/04/07 08:38:53;;;;;;;11.98;4.75;;;;;;;5.74;38.01;93697.47;5065509;28;20092;-71
2023/04/07 08:41:26;;;;;;;14.55;4.93;;;;;;;5.64;37.77;93711.66;5065520;28;20369;-71
2023/04/07 08:43:52;;;;;;;8.60;4.82;;;;;;;5.45;37.95;93700.25;5065300;28;20025;-71
2023/04/07 08:46:22;;;;;;;12.23;4.97;;;;;;;5.61;38.37;93699.00;5065432;28;20029;-71
2023/04/07 08:48:50;;;;;;;9.43;4.32;;;;;;;5.67;38.36;93703.13;5065308;28;20024;-71
2023/04/07 08:51:26;;;;;;;7.55;4.22;;;;;;;5.77;37.80;93696.94;5065350;28;20087;-71
2023/04/07 08:53:53;;;;;;;7.95;4.47;;;;;;;5.85;38.09;93703.44;5065368;28;20219;-72
2023/04/07 08:56:20;;;;;;;7.72;4.50;;;;;;;5.97;38.25;93701.16;5065294;28;20045;-71
2023/04/07 08:58:47;;;;;;;9.00;4.15;;;;;;;6.13;36.78;93694.56;5065240;28;20024;-72
2023/04/07 09:01:13;;;;;;;7.70;3.95;;;;;;;6.21;37.58;93695.78;5065213;28;20096;-71
2023/04/07 09:03:39;;;;;;;8.30;3.85;;;;;;;5.97;37.13;93690.59;5063902;28;20031;-71
2023/04/07 09:06:05;;;;;;;10.00;4.05;;;;;;;6.00;37.56;93695.28;5065122;28;20220;-72
2023/04/07 09:08:30;;;;;;;8.55;4.50;;;;;;;6.16;37.16;93686.03;5063871;28;20016;-72
2023/04/07 09:10:56;;;;;;;8.93;4.60;;;;;;;6.25;37.16;93698.59;5064999;28;20059;-72
2023/04/07 09:13:23;;;;;;;11.88;4.50;;;;;;;6.43;37.03;93695.94;5065005;28;20013;-71
2023/04/07 09:15:49;;;;;;;6.53;4.07;;;;;;;6.64;36.09;93679.69;5064882;28;20078;-72
2023/04/07 09:18:15;;;;;;;9.25;4.25;;;;;;;7.05;35.56;93680.81;5064536;28;20021;-72
2023/04/07 09:21:04;;;;;;;7.13;4.22;;;;;;;7.27;34.73;93698.66;5064812;28;20033;-72
2023/04/07 09:23:32;;;;;;;9.50;4.63;;;;;;;6.81;34.63;93681.75;5064564;28;20061;-72
2023/04/07 09:25:59;;;;;;;7.22;4.13;;;;;;;6.82;35.56;93717.78;5064536;28;20025;-72
2023/04/07 09:28:25;;;;;;;10.13;4.32;;;;;;;6.86;35.71;93686.19;5064555;28;20315;-71
2023/04/07 09:30:54;;;;;;;9.43;4.20;;;;;;;7.01;35.50;93688.56;5064501;28;20338;-72
2023/04/07 09:33:29;;;;;;;10.38;4.55;;;;;;;7.07;35.33;93699.84;5064546;28;20092;-72
2023/04/07 09:35:55;;;;;;;13.07;4.25;;;;;;;6.94;35.52;93704.03;5064531;28;20033;-72
2023/04/07 09:38:21;;;;;;;10.00;4.47;;;;;;;6.82;36.23;93699.25;5064549;28;20200;-72
2023/04/07 09:40:47;;;;;;;10.13;4.78;;;;;;;6.79;35.72;93694.53;5064120;28;20023;-72
2023/04/07 09:43:17;;;;;;;14.02;3.95;;;;;;;6.78;36.71;93699.03;5064158;28;20028;-73
2023/04/07 09:45:43;;;;;;;9.57;4.75;;;;;;;6.69;36.89;93697.34;5064320;28;20035;-72
2023/04/07 09:48:19;;;;;;;13.13;4.22;;;;;;;6.68;38.78;93703.75;5064250;28;20040;-71
2023/04/07 09:50:48;;;;;;;12.55;5.70;;;;;;;6.66;36.93;93703.25;5064159;28;20027;-72
2023/04/07 09:53:15;;;;;;;11.02;5.00;;;;;;;6.56;36.75;93702.34;5064169;28;20021;-72
2023/04/07 09:55:41;;;;;;;9.13;5.18;;;;;;;6.40;36.83;93714.25;5063677;28;20029;-72
2023/04/07 09:58:07;;;;;;;9.10;4.40;;;;;;;6.29;36.58;93713.66;5063853;28;20094;-71
2023/04/07 10:00:34;;;;;;;14.63;5.38;;;;;;;6.43;36.77;93709.19;5063949;28;20232;-72
2023/04/07 10:03:00;;;;;;;11.07;4.53;;;;;;;6.60;36.84;93700.66;5063840;28;20236;-72
2023/04/07 10:05:26;;;;;;;10.18;4.90;;;;;;;6.68;36.66;93712.47;5063796;28;20021;-72
2023/04/07 10:07:53;;;;;;;7.20;4.10;;;;;;;6.63;37.01;93708.03;5063675;28;20031;-72
2023/04/07 10:10:19;;;;;;;11.82;5.50;;;;;;;6.83;36.56;93716.69;5063651;28;20063;-73
2023/04/07 10:12:45;;;;;;;9.00;5.57;;;;;;;6.85;36.17;93708.47;5063949;28;20021;-73
2023/04/07 10:15:15;;;;;;;9.30;4.80;;;;;;;7.03;36.19;93705.72;5063836;28;20055;-73
2023/04/07 10:17:45;;;;;;;9.13;4.28;;;;;;;7.12;35.85;93707.69;5063652;28;20255;-73
2023/04/07 10:20:13;;;;;;;9.57;4.50;;;;;;;7.05;35.68;93707.31;5063984;28;20032;-87
2023/04/07 10:22:41;;;;;;;8.10;4.55;;;;;;;6.88;35.88;93713.16;5063843;28;20040;-88
2023/04/07 10:25:12;;;;;;;7.72;3.80;;;;;;;6.93;35.79;93700.63;5063925;28;20031;-89
2023/04/07 10:27:49;;;;;;;7.50;4.05;;;;;;;7.14;35.56;93706.31;5062890;28;20031;-87
2023/04/07 10:30:19;;;;;;;12.73;4.35;;;;;;;7.06;35.28;93708.88;5062496;28;20028;-88
2023/04/07 10:32:49;;;;;;;9.48;4.20;;;;;;;7.14;36.09;93718.78;5063890;28;20024;-89
2023/04/07 10:35:16;;;;;;;11.02;4.72;;;;;;;7.12;36.49;93716.41;5063960;28;20067;-88
2023/04/07 10:38:07;;;;;;;8.55;4.65;;;;;;;6.98;36.09;93710.31;5063695;28;20062;-88
2023/04/07 10:40:34;;;;;;;11.10;4.93;;;;;;;6.84;36.30;93715.63;5063309;28;20024;-84
2023/04/07 10:43:00;;;;;;;8.32;4.60;;;;;;;6.84;36.78;93723.59;5063310;28;20083;-84
2023/04/07 10:45:47;;;;;;;14.60;4.55;;;;;;;6.91;36.05;93712.59;5063247;28;20029;-83
2023/04/07 10:48:14;;;;;;;9.70;3.92;;;;;;;7.00;36.05;93701.03;5061931;28;20025;-83
2023/04/07 10:50:41;;;;;;;8.93;4.35;;;;;;;7.01;37.04;93705.22;5063201;28;20021;-83
2023/04/07 10:53:11;;;;;;;7.57;3.90;;;;;;;7.08;36.42;93706.72;5062763;28;20016;-84
2023/04/07 10:55:38;;;;;;;8.52;4.65;;;;;;;7.03;36.14;93718.97;5063365;28;20047;-83
2023/04/07 10:58:29;;;;;;;15.48;5.47;;;;;;;6.96;38.66;93720.44;5063039;28;20049;-83
2023/04/07 11:01:08;;;;;;;10.93;5.22;;;;;;;6.78;39.82;93722.88;5063197;28;20017;-80
2023/04/07 11:03:36;;;;;;;10.60;5.15;;;;;;;6.83;39.73;93735.25;5061843;28;20319;-82
2023/04/07 11:06:07;;;;;;;13.93;5.93;;;;;;;6.73;39.71;93732.78;5063053;28;20024;-80
2023/04/07 11:08:33;;;;;;;12.70;6.25;;;;;;;6.82;40.12;93723.88;5062885;28;20055;-83
2023/04/07 11:10:59;;;;;;;19.95;7.78;;;;;;;6.97;40.08;93735.25;5063061;28;20070;-81
2023/04/07 11:13:26;;;;;;;18.27;8.10;;;;;;;6.94;40.86;93728.69;5062866;28;20017;-82
2023/04/07 11:15:51;;;;;;;24.00;8.82;;;;;;;6.92;39.94;93730.84;5062944;28;20021;-81
2023/04/07 11:18:22;;;;;;;14.30;6.30;;;;;;;6.94;40.22;93726.03;5062891;28;20276;-82
2023/04/07 11:20:49;;;;;;;14.15;5.28;;;;;;;6.83;39.73;93732.59;5062709;28;20092;-81
2023/04/07 11:23:17;;;;;;;13.38;5.15;;;;;;;6.92;39.82;93730.03;5061359;28;20029;-80
2023/04/07 11:25:44;;;;;;;13.38;5.60;;;;;;;7.16;39.43;93729.88;5062767;28;20036;-80
2023/04/07 11:28:13;;;;;;;16.13;7.03;;;;;;;7.29;39.62;93729.09;5062988;28;20032;-84
2023/04/07 11:30:44;;;;;;;13.10;6.22;;;;;;;7.35;38.60;93730.56;5061714;28;20025;-82
2023/04/07 11:33:14;;;;;;;21.57;6.37;;;;;;;7.45;40.09;93721.63;5062828;28;20247;-84
2023/04/07 11:35:47;;;;;;;10.88;5.72;;;;;;;7.52;39.13;93729.19;5062887;28;20051;-80